sensor_id;sensor_type;location;lat;lon;timestamp;temperature;humidity
32877;DHT22;19226;51.600;8.034;2024-03-02T00:01:35;8.60;99.90
32877;DHT22;19226;51.600;8.034;2024-03-02T00:04:19;8.60;99.90
32877;DHT22;19226;51.600;8.034;2024-03-02T00:07:04;8.70;99.90
32877;DHT22;19226;51.600;8.034;2024-03-02T00:09:53;8.60;99.90
32877;DHT22;19226;51.600;8.034;2024-03-02T00:12:39;8.70;99.90
32877;DHT22;19226;51.600;8.034;2024-03-02T00:18:35;8.70;99.90
32877;DHT22;19226;51.600;8.034;2024-03-02T00:21:21;8.70;99.90
32877;DHT22;19226;51.600;8.034;2024-03-02T00:24:21;8.70;99.90
32877;DHT22;19226;51.600;8.034;2024-03-02T00:27:13;8.70;99.90
32877;DHT22;19226;51.600;8.034;2024-03-02T00:30:00;8.70;99.90
32877;DHT22;19226;51.600;8.034;2024-03-02T00:32:45;8.60;99.90
32877;DHT22;19226;51.600;8.034;2024-03-02T00:35:30;8.70;99.90
32877;DHT22;19226;51.600;8.034;2024-03-02T00:38:14;8.60;99.90
32877;DHT22;19226;51.600;8.034;2024-03-02T00:41:06;8.60;99.90
32877;DHT22;19226;51.600;8.034;2024-03-02T00:44:06;8.60;99.90
32877;DHT22;19226;51.600;8.034;2024-03-02T00:46:52;8.60;99.90
32877;DHT22;19226;51.600;8.034;2024-03-02T00:49:37;8.50;99.90
32877;DHT22;19226;51.600;8.034;2024-03-02T00:52:22;8.40;99.90
32877;DHT22;19226;51.600;8.034;2024-03-02T00:55:07;8.40;99.90
32877;DHT22;19226;51.600;8.034;2024-03-02T00:57:52;8.40;99.90
32877;DHT22;19226;51.600;8.034;2024-03-02T01:00:36;8.40;99.90
32877;DHT22;19226;51.600;8.034;2024-03-02T01:03:20;8.40;99.90
32877;DHT22;19226;51.600;8.034;2024-03-02T01:06:05;8.40;99.90
32877;DHT22;19226;51.600;8.034;2024-03-02T01:08:51;8.30;99.90
32877;DHT22;19226;51.600;8.034;2024-03-02T01:11:36;8.30;99.90
32877;DHT22;19226;51.600;8.034;2024-03-02T01:14:20;8.30;99.90
32877;DHT22;19226;51.600;8.034;2024-03-02T01:17:05;8.40;99.90
32877;DHT22;19226;51.600;8.034;2024-03-02T01:19:49;8.40;99.90
32877;DHT22;19226;51.600;8.034;2024-03-02T01:22:34;8.50;99.90
32877;DHT22;19226;51.600;8.034;2024-03-02T01:25:19;8.50;99.90
32877;DHT22;19226;51.600;8.034;2024-03-02T01:28:04;8.50;99.90
32877;DHT22;19226;51.600;8.034;2024-03-02T01:30:49;8.40;99.90
32877;DHT22;19226;51.600;8.034;2024-03-02T01:33:33;8.40;99.90
32877;DHT22;19226;51.600;8.034;2024-03-02T01:36:18;8.30;99.90
32877;DHT22;19226;51.600;8.034;2024-03-02T01:39:03;8.30;99.90
32877;DHT22;19226;51.600;8.034;2024-03-02T01:41:47;8.20;99.90
32877;DHT22;19226;51.600;8.034;2024-03-02T01:44:33;8.20;99.90
32877;DHT22;19226;51.600;8.034;2024-03-02T01:47:18;8.20;99.90
32877;DHT22;19226;51.600;8.034;2024-03-02T01:50:02;8.20;99.90
32877;DHT22;19226;51.600;8.034;2024-03-02T01:52:46;8.20;99.90
32877;DHT22;19226;51.600;8.034;2024-03-02T01:55:31;8.20;99.90
32877;DHT22;19226;51.600;8.034;2024-03-02T01:58:17;8.10;99.90
32877;DHT22;19226;51.600;8.034;2024-03-02T02:01:02;8.10;99.90
32877;DHT22;19226;51.600;8.034;2024-03-02T02:03:47;8.10;99.90
32877;DHT22;19226;51.600;8.034;2024-03-02T02:06:32;8.00;99.90
32877;DHT22;19226;51.600;8.034;2024-03-02T02:09:16;8.00;99.90
32877;DHT22;19226;51.600;8.034;2024-03-02T02:12:03;8.00;99.90
32877;DHT22;19226;51.600;8.034;2024-03-02T02:14:50;8.00;99.90
32877;DHT22;19226;51.600;8.034;2024-03-02T02:17:34;8.00;99.90
32877;DHT22;19226;51.600;8.034;2024-03-02T02:20:19;8.00;99.90
32877;DHT22;19226;51.600;8.034;2024-03-02T02:23:04;8.10;99.90
32877;DHT22;19226;51.600;8.034;2024-03-02T02:25:55;8.20;99.90
32877;DHT22;19226;51.600;8.034;2024-03-02T02:28:40;8.20;99.90
32877;DHT22;19226;51.600;8.034;2024-03-02T02:31:41;8.20;99.90
32877;DHT22;19226;51.600;8.034;2024-03-02T02:34:25;8.30;99.90
32877;DHT22;19226;51.600;8.034;2024-03-02T02:37:10;8.30;99.90
32877;DHT22;19226;51.600;8.034;2024-03-02T02:39:54;8.40;99.90
32877;DHT22;19226;51.600;8.034;2024-03-02T02:42:39;8.40;99.90
32877;DHT22;19226;51.600;8.034;2024-03-02T02:45:24;8.40;99.90
32877;DHT22;19226;51.600;8.034;2024-03-02T02:48:08;8.40;99.90
32877;DHT22;19226;51.600;8.034;2024-03-02T02:50:53;8.40;99.90
32877;DHT22;19226;51.600;8.034;2024-03-02T02:53:37;8.50;99.90
32877;DHT22;19226;51.600;8.034;2024-03-02T02:56:24;8.50;99.90
32877;DHT22;19226;51.600;8.034;2024-03-02T02:59:09;8.50;99.90
32877;DHT22;19226;51.600;8.034;2024-03-02T03:01:53;8.50;99.90
32877;DHT22;19226;51.600;8.034;2024-03-02T03:04:40;8.50;99.90
32877;DHT22;19226;51.600;8.034;2024-03-02T03:07:24;8.50;99.90
32877;DHT22;19226;51.600;8.034;2024-03-02T03:10:09;8.50;99.90
32877;DHT22;19226;51.600;8.034;2024-03-02T03:12:53;8.50;99.90
32877;DHT22;19226;51.600;8.034;2024-03-02T03:15:40;8.50;99.90
32877;DHT22;19226;51.600;8.034;2024-03-02T03:18:24;8.50;99.90
32877;DHT22;19226;51.600;8.034;2024-03-02T03:21:09;8.40;99.90
32877;DHT22;19226;51.600;8.034;2024-03-02T03:23:53;8.50;99.90
32877;DHT22;19226;51.600;8.034;2024-03-02T03:26:39;8.50;99.90
32877;DHT22;19226;51.600;8.034;2024-03-02T03:29:24;8.40;99.90
32877;DHT22;19226;51.600;8.034;2024-03-02T03:32:09;8.40;99.90
32877;DHT22;19226;51.600;8.034;2024-03-02T03:34:53;8.40;99.90
32877;DHT22;19226;51.600;8.034;2024-03-02T03:37:38;8.40;99.90
32877;DHT22;19226;51.600;8.034;2024-03-02T03:40:23;8.40;99.90
32877;DHT22;19226;51.600;8.034;2024-03-02T03:43:07;8.40;99.90
32877;DHT22;19226;51.600;8.034;2024-03-02T03:45:53;8.40;99.90
32877;DHT22;19226;51.600;8.034;2024-03-02T03:48:37;8.40;99.90
32877;DHT22;19226;51.600;8.034;2024-03-02T03:51:22;8.40;99.90
32877;DHT22;19226;51.600;8.034;2024-03-02T03:54:09;8.40;99.90
32877;DHT22;19226;51.600;8.034;2024-03-02T03:56:55;8.40;99.90
32877;DHT22;19226;51.600;8.034;2024-03-02T03:59:40;8.40;99.90
32877;DHT22;19226;51.600;8.034;2024-03-02T04:02:25;8.40;99.90
32877;DHT22;19226;51.600;8.034;2024-03-02T04:05:09;8.40;99.90
32877;DHT22;19226;51.600;8.034;2024-03-02T04:07:54;8.30;99.90
32877;DHT22;19226;51.600;8.034;2024-03-02T04:10:39;8.30;99.90
32877;DHT22;19226;51.600;8.034;2024-03-02T04:13:24;8.30;99.90
32877;DHT22;19226;51.600;8.034;2024-03-02T04:16:09;8.30;99.90
32877;DHT22;19226;51.600;8.034;2024-03-02T04:18:53;8.20;99.90
32877;DHT22;19226;51.600;8.034;2024-03-02T04:21:38;8.20;99.90
32877;DHT22;19226;51.600;8.034;2024-03-02T04:24:23;8.20;99.90
32877;DHT22;19226;51.600;8.034;2024-03-02T04:27:10;8.20;99.90
32877;DHT22;19226;51.600;8.034;2024-03-02T04:29:55;8.20;99.90
32877;DHT22;19226;51.600;8.034;2024-03-02T04:32:41;8.10;99.90
32877;DHT22;19226;51.600;8.034;2024-03-02T04:35:26;8.10;99.90
32877;DHT22;19226;51.600;8.034;2024-03-02T04:38:10;8.10;99.90
32877;DHT22;19226;51.600;8.034;2024-03-02T04:40:55;8.10;99.90
32877;DHT22;19226;51.600;8.034;2024-03-02T04:43:39;8.10;99.90
32877;DHT22;19226;51.600;8.034;2024-03-02T04:46:24;8.10;99.90
32877;DHT22;19226;51.600;8.034;2024-03-02T04:49:09;8.10;99.90
32877;DHT22;19226;51.600;8.034;2024-03-02T04:51:53;8.10;99.90
32877;DHT22;19226;51.600;8.034;2024-03-02T04:54:38;8.10;99.90
32877;DHT22;19226;51.600;8.034;2024-03-02T04:57:43;8.10;99.90
32877;DHT22;19226;51.600;8.034;2024-03-02T05:00:28;8.10;99.90
32877;DHT22;19226;51.600;8.034;2024-03-02T05:03:13;8.10;99.90
32877;DHT22;19226;51.600;8.034;2024-03-02T05:05:57;8.10;99.90
32877;DHT22;19226;51.600;8.034;2024-03-02T05:08:42;8.10;99.90
32877;DHT22;19226;51.600;8.034;2024-03-02T05:11:29;8.10;99.90
32877;DHT22;19226;51.600;8.034;2024-03-02T05:14:33;8.10;99.90
32877;DHT22;19226;51.600;8.034;2024-03-02T05:17:18;8.20;99.90
32877;DHT22;19226;51.600;8.034;2024-03-02T05:20:03;8.20;99.90
32877;DHT22;19226;51.600;8.034;2024-03-02T05:22:48;8.20;99.90
32877;DHT22;19226;51.600;8.034;2024-03-02T05:25:34;8.30;99.90
32877;DHT22;19226;51.600;8.034;2024-03-02T05:28:19;8.30;99.90
32877;DHT22;19226;51.600;8.034;2024-03-02T05:31:04;8.30;99.90
32877;DHT22;19226;51.600;8.034;2024-03-02T05:33:49;8.30;99.90
32877;DHT22;19226;51.600;8.034;2024-03-02T05:36:34;8.30;99.90
32877;DHT22;19226;51.600;8.034;2024-03-02T05:39:18;8.30;99.90
32877;DHT22;19226;51.600;8.034;2024-03-02T05:42:03;8.30;99.90
32877;DHT22;19226;51.600;8.034;2024-03-02T05:44:48;8.30;99.90
32877;DHT22;19226;51.600;8.034;2024-03-02T05:47:32;8.40;99.90
32877;DHT22;19226;51.600;8.034;2024-03-02T05:50:17;8.30;99.90
32877;DHT22;19226;51.600;8.034;2024-03-02T05:53:02;8.30;99.90
32877;DHT22;19226;51.600;8.034;2024-03-02T05:55:47;8.30;99.90
32877;DHT22;19226;51.600;8.034;2024-03-02T05:58:38;8.30;99.90
32877;DHT22;19226;51.600;8.034;2024-03-02T06:01:45;8.40;99.90
32877;DHT22;19226;51.600;8.034;2024-03-02T06:04:34;8.30;99.90
32877;DHT22;19226;51.600;8.034;2024-03-02T06:07:19;8.30;99.90
32877;DHT22;19226;51.600;8.034;2024-03-02T06:10:04;8.30;99.90
32877;DHT22;19226;51.600;8.034;2024-03-02T06:12:48;8.20;99.90
32877;DHT22;19226;51.600;8.034;2024-03-02T06:15:33;8.20;99.90
32877;DHT22;19226;51.600;8.034;2024-03-02T06:18:20;8.20;99.90
32877;DHT22;19226;51.600;8.034;2024-03-02T06:21:04;8.20;99.90
32877;DHT22;19226;51.600;8.034;2024-03-02T06:23:49;8.20;99.90
32877;DHT22;19226;51.600;8.034;2024-03-02T06:26:33;8.10;99.90
32877;DHT22;19226;51.600;8.034;2024-03-02T06:29:18;8.10;99.90
32877;DHT22;19226;51.600;8.034;2024-03-02T06:32:02;8.10;99.90
32877;DHT22;19226;51.600;8.034;2024-03-02T06:34:47;8.10;99.90
32877;DHT22;19226;51.600;8.034;2024-03-02T06:37:31;8.00;99.90
32877;DHT22;19226;51.600;8.034;2024-03-02T06:40:16;8.00;99.90
32877;DHT22;19226;51.600;8.034;2024-03-02T06:43:00;8.00;99.90
32877;DHT22;19226;51.600;8.034;2024-03-02T06:45:45;7.90;99.90
32877;DHT22;19226;51.600;8.034;2024-03-02T06:48:29;7.90;99.90
32877;DHT22;19226;51.600;8.034;2024-03-02T06:51:14;7.90;99.90
32877;DHT22;19226;51.600;8.034;2024-03-02T06:54:00;8.00;99.90
32877;DHT22;19226;51.600;8.034;2024-03-02T06:56:44;8.00;99.90
32877;DHT22;19226;51.600;8.034;2024-03-02T06:59:29;7.90;99.90
32877;DHT22;19226;51.600;8.034;2024-03-02T07:02:14;7.90;99.90
32877;DHT22;19226;51.600;8.034;2024-03-02T07:04:58;7.90;99.90
32877;DHT22;19226;51.600;8.034;2024-03-02T07:07:43;8.00;99.90
32877;DHT22;19226;51.600;8.034;2024-03-02T07:10:27;8.00;99.90
32877;DHT22;19226;51.600;8.034;2024-03-02T07:13:12;8.00;99.90
32877;DHT22;19226;51.600;8.034;2024-03-02T07:15:57;8.10;99.90
32877;DHT22;19226;51.600;8.034;2024-03-02T07:18:47;8.10;99.90
32877;DHT22;19226;51.600;8.034;2024-03-02T07:21:35;8.20;99.90
32877;DHT22;19226;51.600;8.034;2024-03-02T07:24:20;8.20;99.90
32877;DHT22;19226;51.600;8.034;2024-03-02T07:27:04;8.30;99.90
32877;DHT22;19226;51.600;8.034;2024-03-02T07:29:49;8.30;99.90
32877;DHT22;19226;51.600;8.034;2024-03-02T07:32:33;8.40;99.90
32877;DHT22;19226;51.600;8.034;2024-03-02T07:35:18;8.50;99.90
32877;DHT22;19226;51.600;8.034;2024-03-02T07:38:02;8.60;99.90
32877;DHT22;19226;51.600;8.034;2024-03-02T07:40:48;8.70;99.90
32877;DHT22;19226;51.600;8.034;2024-03-02T07:43:36;8.80;99.90
32877;DHT22;19226;51.600;8.034;2024-03-02T07:46:20;8.90;99.90
32877;DHT22;19226;51.600;8.034;2024-03-02T07:49:06;9.00;99.90
32877;DHT22;19226;51.600;8.034;2024-03-02T07:51:50;9.10;99.90
32877;DHT22;19226;51.600;8.034;2024-03-02T07:54:35;9.30;99.90
32877;DHT22;19226;51.600;8.034;2024-03-02T07:57:19;9.30;99.90
32877;DHT22;19226;51.600;8.034;2024-03-02T08:00:05;9.40;99.90
32877;DHT22;19226;51.600;8.034;2024-03-02T08:02:56;9.50;99.90
32877;DHT22;19226;51.600;8.034;2024-03-02T08:05:41;9.50;99.90
32877;DHT22;19226;51.600;8.034;2024-03-02T08:08:25;9.70;99.90
32877;DHT22;19226;51.600;8.034;2024-03-02T08:11:10;9.80;99.90
32877;DHT22;19226;51.600;8.034;2024-03-02T08:13:54;9.90;99.90
32877;DHT22;19226;51.600;8.034;2024-03-02T08:16:39;10.00;99.90
32877;DHT22;19226;51.600;8.034;2024-03-02T08:19:24;10.10;99.90
32877;DHT22;19226;51.600;8.034;2024-03-02T08:22:08;10.30;99.90
32877;DHT22;19226;51.600;8.034;2024-03-02T08:24:54;10.40;99.90
32877;DHT22;19226;51.600;8.034;2024-03-02T08:27:40;10.50;99.90
32877;DHT22;19226;51.600;8.034;2024-03-02T08:30:24;10.60;99.90
32877;DHT22;19226;51.600;8.034;2024-03-02T08:33:09;10.70;99.90
32877;DHT22;19226;51.600;8.034;2024-03-02T08:35:53;10.80;99.90
32877;DHT22;19226;51.600;8.034;2024-03-02T08:38:38;10.90;99.90
32877;DHT22;19226;51.600;8.034;2024-03-02T08:41:23;10.90;99.90
32877;DHT22;19226;51.600;8.034;2024-03-02T08:44:07;11.00;99.90
32877;DHT22;19226;51.600;8.034;2024-03-02T08:46:51;11.00;99.90
32877;DHT22;19226;51.600;8.034;2024-03-02T08:49:36;11.10;99.90
32877;DHT22;19226;51.600;8.034;2024-03-02T08:52:20;11.20;99.90
32877;DHT22;19226;51.600;8.034;2024-03-02T08:55:05;11.30;99.90
32877;DHT22;19226;51.600;8.034;2024-03-02T08:57:51;11.20;99.90
32877;DHT22;19226;51.600;8.034;2024-03-02T09:00:35;11.30;99.90
32877;DHT22;19226;51.600;8.034;2024-03-02T09:03:20;11.40;99.90
32877;DHT22;19226;51.600;8.034;2024-03-02T09:06:04;11.50;99.90
32877;DHT22;19226;51.600;8.034;2024-03-02T09:08:49;11.60;99.90
32877;DHT22;19226;51.600;8.034;2024-03-02T09:11:36;11.80;99.90
32877;DHT22;19226;51.600;8.034;2024-03-02T09:14:21;11.80;99.90
32877;DHT22;19226;51.600;8.034;2024-03-02T09:17:06;11.90;99.90
32877;DHT22;19226;51.600;8.034;2024-03-02T09:19:50;12.00;99.90
32877;DHT22;19226;51.600;8.034;2024-03-02T09:22:37;12.10;99.90
32877;DHT22;19226;51.600;8.034;2024-03-02T09:25:21;12.20;99.90
32877;DHT22;19226;51.600;8.034;2024-03-02T09:28:06;12.40;99.90
32877;DHT22;19226;51.600;8.034;2024-03-02T09:30:51;12.50;99.90
32877;DHT22;19226;51.600;8.034;2024-03-02T09:33:36;12.60;99.90
32877;DHT22;19226;51.600;8.034;2024-03-02T09:36:22;12.70;99.90
32877;DHT22;19226;51.600;8.034;2024-03-02T09:39:10;12.90;99.90
32877;DHT22;19226;51.600;8.034;2024-03-02T09:41:55;12.90;99.90
32877;DHT22;19226;51.600;8.034;2024-03-02T09:44:39;13.00;99.90
32877;DHT22;19226;51.600;8.034;2024-03-02T09:47:24;13.10;99.90
32877;DHT22;19226;51.600;8.034;2024-03-02T09:50:09;13.10;99.90
32877;DHT22;19226;51.600;8.034;2024-03-02T09:52:54;13.20;99.90
32877;DHT22;19226;51.600;8.034;2024-03-02T09:55:38;13.30;99.90
32877;DHT22;19226;51.600;8.034;2024-03-02T09:58:27;13.40;99.90
32877;DHT22;19226;51.600;8.034;2024-03-02T10:01:11;13.50;99.90
32877;DHT22;19226;51.600;8.034;2024-03-02T10:03:59;13.60;99.90
32877;DHT22;19226;51.600;8.034;2024-03-02T10:06:44;13.60;99.90
32877;DHT22;19226;51.600;8.034;2024-03-02T10:09:28;13.70;99.90
32877;DHT22;19226;51.600;8.034;2024-03-02T10:12:14;13.70;99.90
32877;DHT22;19226;51.600;8.034;2024-03-02T10:15:03;13.80;99.90
32877;DHT22;19226;51.600;8.034;2024-03-02T10:17:49;13.90;99.90
32877;DHT22;19226;51.600;8.034;2024-03-02T10:20:34;14.00;99.90
32877;DHT22;19226;51.600;8.034;2024-03-02T10:23:19;14.10;99.90
32877;DHT22;19226;51.600;8.034;2024-03-02T10:26:17;14.20;99.90
32877;DHT22;19226;51.600;8.034;2024-03-02T10:29:02;14.20;99.90
32877;DHT22;19226;51.600;8.034;2024-03-02T10:31:47;14.20;99.90
32877;DHT22;19226;51.600;8.034;2024-03-02T10:34:32;14.40;99.90
32877;DHT22;19226;51.600;8.034;2024-03-02T10:37:16;14.40;99.90
32877;DHT22;19226;51.600;8.034;2024-03-02T10:40:07;14.40;99.90
32877;DHT22;19226;51.600;8.034;2024-03-02T10:42:52;14.60;99.90
32877;DHT22;19226;51.600;8.034;2024-03-02T10:45:37;14.70;99.90
32877;DHT22;19226;51.600;8.034;2024-03-02T10:48:21;14.80;99.90
32877;DHT22;19226;51.600;8.034;2024-03-02T10:51:06;15.00;99.90
32877;DHT22;19226;51.600;8.034;2024-03-02T10:53:52;15.00;99.90
32877;DHT22;19226;51.600;8.034;2024-03-02T10:56:41;15.00;99.90
32877;DHT22;19226;51.600;8.034;2024-03-02T10:59:27;15.20;99.90
32877;DHT22;19226;51.600;8.034;2024-03-02T11:02:14;15.30;99.90
32877;DHT22;19226;51.600;8.034;2024-03-02T11:05:00;15.40;99.90
32877;DHT22;19226;51.600;8.034;2024-03-02T11:07:47;15.40;99.90
32877;DHT22;19226;51.600;8.034;2024-03-02T11:10:54;15.40;99.90
32877;DHT22;19226;51.600;8.034;2024-03-02T11:13:49;15.30;99.90
32877;DHT22;19226;51.600;8.034;2024-03-02T11:16:37;15.20;99.90
32877;DHT22;19226;51.600;8.034;2024-03-02T11:19:23;15.30;99.90
32877;DHT22;19226;51.600;8.034;2024-03-02T11:22:09;15.30;99.90
32877;DHT22;19226;51.600;8.034;2024-03-02T11:24:53;15.40;99.90
32877;DHT22;19226;51.600;8.034;2024-03-02T11:33:23;15.60;99.90
32877;DHT22;19226;51.600;8.034;2024-03-02T11:36:09;15.70;99.90
32877;DHT22;19226;51.600;8.034;2024-03-02T11:38:54;15.60;99.90
32877;DHT22;19226;51.600;8.034;2024-03-02T11:41:40;15.70;99.90
32877;DHT22;19226;51.600;8.034;2024-03-02T11:44:27;15.60;99.90
32877;DHT22;19226;51.600;8.034;2024-03-02T11:47:15;15.70;99.90
32877;DHT22;19226;51.600;8.034;2024-03-02T11:49:59;15.80;99.90
32877;DHT22;19226;51.600;8.034;2024-03-02T11:52:45;15.90;99.90
32877;DHT22;19226;51.600;8.034;2024-03-02T11:55:31;15.90;99.90
32877;DHT22;19226;51.600;8.034;2024-03-02T11:58:15;15.80;99.90
32877;DHT22;19226;51.600;8.034;2024-03-02T12:01:04;15.90;99.90
32877;DHT22;19226;51.600;8.034;2024-03-02T12:03:49;15.80;99.90
32877;DHT22;19226;51.600;8.034;2024-03-02T12:06:33;15.80;99.90
32877;DHT22;19226;51.600;8.034;2024-03-02T12:09:18;15.90;99.90
32877;DHT22;19226;51.600;8.034;2024-03-02T12:14:51;16.00;99.90
32877;DHT22;19226;51.600;8.034;2024-03-02T12:17:37;16.00;99.90
32877;DHT22;19226;51.600;8.034;2024-03-02T12:20:22;16.00;99.90
32877;DHT22;19226;51.600;8.034;2024-03-02T12:23:08;15.90;99.90
32877;DHT22;19226;51.600;8.034;2024-03-02T12:25:52;15.90;99.90
32877;DHT22;19226;51.600;8.034;2024-03-02T12:28:37;15.90;99.90
32877;DHT22;19226;51.600;8.034;2024-03-02T12:31:22;16.00;99.90
32877;DHT22;19226;51.600;8.034;2024-03-02T12:34:06;16.00;99.90
32877;DHT22;19226;51.600;8.034;2024-03-02T12:36:51;16.10;99.90
32877;DHT22;19226;51.600;8.034;2024-03-02T12:39:37;16.00;99.90
32877;DHT22;19226;51.600;8.034;2024-03-02T12:42:21;16.00;99.90
32877;DHT22;19226;51.600;8.034;2024-03-02T12:45:08;16.10;99.90
32877;DHT22;19226;51.600;8.034;2024-03-02T12:47:54;16.10;99.90
32877;DHT22;19226;51.600;8.034;2024-03-02T12:50:38;16.10;99.90
32877;DHT22;19226;51.600;8.034;2024-03-02T12:53:23;16.00;99.90
32877;DHT22;19226;51.600;8.034;2024-03-02T12:56:09;16.00;99.90
32877;DHT22;19226;51.600;8.034;2024-03-02T12:58:54;16.00;99.90
32877;DHT22;19226;51.600;8.034;2024-03-02T13:01:50;16.00;99.90
32877;DHT22;19226;51.600;8.034;2024-03-02T13:04:37;16.00;99.90
32877;DHT22;19226;51.600;8.034;2024-03-02T13:07:23;16.00;99.90
32877;DHT22;19226;51.600;8.034;2024-03-02T13:10:08;16.00;99.90
32877;DHT22;19226;51.600;8.034;2024-03-02T13:12:52;16.00;99.90
32877;DHT22;19226;51.600;8.034;2024-03-02T13:15:38;16.10;99.90
32877;DHT22;19226;51.600;8.034;2024-03-02T13:18:23;16.20;99.90
32877;DHT22;19226;51.600;8.034;2024-03-02T13:21:11;16.30;99.90
32877;DHT22;19226;51.600;8.034;2024-03-02T13:23:55;16.40;99.90
32877;DHT22;19226;51.600;8.034;2024-03-02T13:26:39;16.40;99.90
32877;DHT22;19226;51.600;8.034;2024-03-02T13:29:24;16.40;99.90
32877;DHT22;19226;51.600;8.034;2024-03-02T13:32:09;16.20;99.90
32877;DHT22;19226;51.600;8.034;2024-03-02T13:34:54;16.10;99.90
32877;DHT22;19226;51.600;8.034;2024-03-02T13:37:38;16.20;99.90
32877;DHT22;19226;51.600;8.034;2024-03-02T13:40:23;16.20;99.90
32877;DHT22;19226;51.600;8.034;2024-03-02T13:43:08;16.30;99.90
32877;DHT22;19226;51.600;8.034;2024-03-02T13:45:52;16.50;99.90
32877;DHT22;19226;51.600;8.034;2024-03-02T13:48:37;16.70;99.90
32877;DHT22;19226;51.600;8.034;2024-03-02T13:51:22;16.70;99.90
32877;DHT22;19226;51.600;8.034;2024-03-02T13:54:07;16.60;99.90
32877;DHT22;19226;51.600;8.034;2024-03-02T13:56:52;16.50;99.90
32877;DHT22;19226;51.600;8.034;2024-03-02T13:59:37;16.40;99.90
32877;DHT22;19226;51.600;8.034;2024-03-02T14:02:22;16.30;99.90
32877;DHT22;19226;51.600;8.034;2024-03-02T14:05:07;16.30;99.90
32877;DHT22;19226;51.600;8.034;2024-03-02T14:07:55;16.40;99.90
32877;DHT22;19226;51.600;8.034;2024-03-02T14:10:39;16.40;99.90
32877;DHT22;19226;51.600;8.034;2024-03-02T14:13:24;16.40;99.90
32877;DHT22;19226;51.600;8.034;2024-03-02T14:16:10;16.30;99.90
32877;DHT22;19226;51.600;8.034;2024-03-02T14:18:56;16.20;99.90
32877;DHT22;19226;51.600;8.034;2024-03-02T14:21:40;16.00;99.90
32877;DHT22;19226;51.600;8.034;2024-03-02T14:24:25;15.90;99.90
32877;DHT22;19226;51.600;8.034;2024-03-02T14:27:11;16.00;99.90
32877;DHT22;19226;51.600;8.034;2024-03-02T14:29:56;16.00;99.90
32877;DHT22;19226;51.600;8.034;2024-03-02T14:32:40;16.00;99.90
32877;DHT22;19226;51.600;8.034;2024-03-02T14:35:25;16.00;99.90
32877;DHT22;19226;51.600;8.034;2024-03-02T14:38:09;15.90;99.90
32877;DHT22;19226;51.600;8.034;2024-03-02T14:40:54;15.80;99.90
32877;DHT22;19226;51.600;8.034;2024-03-02T14:43:39;15.90;99.90
32877;DHT22;19226;51.600;8.034;2024-03-02T14:46:24;15.90;99.90
32877;DHT22;19226;51.600;8.034;2024-03-02T14:49:09;15.90;99.90
32877;DHT22;19226;51.600;8.034;2024-03-02T14:51:54;15.90;99.90
32877;DHT22;19226;51.600;8.034;2024-03-02T14:54:39;15.90;99.90
32877;DHT22;19226;51.600;8.034;2024-03-02T14:57:24;15.90;99.90
32877;DHT22;19226;51.600;8.034;2024-03-02T15:00:09;15.90;99.90
32877;DHT22;19226;51.600;8.034;2024-03-02T15:02:55;15.80;99.90
32877;DHT22;19226;51.600;8.034;2024-03-02T15:05:41;15.80;99.90
32877;DHT22;19226;51.600;8.034;2024-03-02T15:08:26;15.70;99.90
32877;DHT22;19226;51.600;8.034;2024-03-02T15:11:10;15.60;99.90
32877;DHT22;19226;51.600;8.034;2024-03-02T15:13:55;15.60;99.90
32877;DHT22;19226;51.600;8.034;2024-03-02T15:16:40;15.50;99.90
32877;DHT22;19226;51.600;8.034;2024-03-02T15:19:26;15.40;99.90
32877;DHT22;19226;51.600;8.034;2024-03-02T15:22:11;15.40;99.90
32877;DHT22;19226;51.600;8.034;2024-03-02T15:24:56;15.30;99.90
32877;DHT22;19226;51.600;8.034;2024-03-02T15:27:42;15.20;99.90
32877;DHT22;19226;51.600;8.034;2024-03-02T15:30:26;15.20;99.90
32877;DHT22;19226;51.600;8.034;2024-03-02T15:33:11;15.10;99.90
32877;DHT22;19226;51.600;8.034;2024-03-02T15:35:55;15.10;99.90
32877;DHT22;19226;51.600;8.034;2024-03-02T15:38:39;15.00;99.90
32877;DHT22;19226;51.600;8.034;2024-03-02T15:41:24;15.00;99.90
32877;DHT22;19226;51.600;8.034;2024-03-02T15:44:09;15.00;99.90
32877;DHT22;19226;51.600;8.034;2024-03-02T15:46:56;14.90;99.90
32877;DHT22;19226;51.600;8.034;2024-03-02T15:49:41;14.90;99.90
32877;DHT22;19226;51.600;8.034;2024-03-02T15:52:26;14.90;99.90
32877;DHT22;19226;51.600;8.034;2024-03-02T15:55:10;14.80;99.90
32877;DHT22;19226;51.600;8.034;2024-03-02T15:57:55;14.80;99.90
32877;DHT22;19226;51.600;8.034;2024-03-02T16:00:40;14.80;99.90
32877;DHT22;19226;51.600;8.034;2024-03-02T16:03:25;14.80;99.90
32877;DHT22;19226;51.600;8.034;2024-03-02T16:06:09;14.70;99.90
32877;DHT22;19226;51.600;8.034;2024-03-02T16:08:54;14.70;99.90
32877;DHT22;19226;51.600;8.034;2024-03-02T16:11:41;14.70;99.90
32877;DHT22;19226;51.600;8.034;2024-03-02T16:14:25;14.60;99.90
32877;DHT22;19226;51.600;8.034;2024-03-02T16:17:10;14.60;99.90
32877;DHT22;19226;51.600;8.034;2024-03-02T16:19:54;14.50;99.90
32877;DHT22;19226;51.600;8.034;2024-03-02T16:22:40;14.50;99.90
32877;DHT22;19226;51.600;8.034;2024-03-02T16:25:25;14.50;99.90
32877;DHT22;19226;51.600;8.034;2024-03-02T16:28:09;14.50;99.90
32877;DHT22;19226;51.600;8.034;2024-03-02T16:30:54;14.40;99.90
32877;DHT22;19226;51.600;8.034;2024-03-02T16:33:39;14.40;99.90
32877;DHT22;19226;51.600;8.034;2024-03-02T16:36:23;14.40;99.90
32877;DHT22;19226;51.600;8.034;2024-03-02T16:39:09;14.50;99.90
32877;DHT22;19226;51.600;8.034;2024-03-02T16:41:55;14.50;99.90
32877;DHT22;19226;51.600;8.034;2024-03-02T16:44:40;14.40;99.90
32877;DHT22;19226;51.600;8.034;2024-03-02T16:47:25;14.40;99.90
32877;DHT22;19226;51.600;8.034;2024-03-02T16:50:10;14.30;99.90
32877;DHT22;19226;51.600;8.034;2024-03-02T16:52:56;14.20;99.90
32877;DHT22;19226;51.600;8.034;2024-03-02T16:55:40;14.20;99.90
32877;DHT22;19226;51.600;8.034;2024-03-02T16:58:25;14.10;99.90
32877;DHT22;19226;51.600;8.034;2024-03-02T17:01:09;14.10;99.90
32877;DHT22;19226;51.600;8.034;2024-03-02T17:03:54;14.10;99.90
32877;DHT22;19226;51.600;8.034;2024-03-02T17:06:38;14.00;99.90
32877;DHT22;19226;51.600;8.034;2024-03-02T17:09:23;14.00;99.90
32877;DHT22;19226;51.600;8.034;2024-03-02T17:12:07;14.00;99.90
32877;DHT22;19226;51.600;8.034;2024-03-02T17:14:52;13.90;99.90
32877;DHT22;19226;51.600;8.034;2024-03-02T17:17:36;13.80;99.90
32877;DHT22;19226;51.600;8.034;2024-03-02T17:20:21;13.80;99.90
32877;DHT22;19226;51.600;8.034;2024-03-02T17:23:05;13.80;99.90
32877;DHT22;19226;51.600;8.034;2024-03-02T17:25:51;13.80;99.90
32877;DHT22;19226;51.600;8.034;2024-03-02T17:28:36;13.70;99.90
32877;DHT22;19226;51.600;8.034;2024-03-02T17:31:21;13.60;99.90
32877;DHT22;19226;51.600;8.034;2024-03-02T17:34:06;13.60;99.90
32877;DHT22;19226;51.600;8.034;2024-03-02T17:36:51;13.60;99.90
32877;DHT22;19226;51.600;8.034;2024-03-02T17:39:35;13.60;99.90
32877;DHT22;19226;51.600;8.034;2024-03-02T17:42:20;13.50;99.90
32877;DHT22;19226;51.600;8.034;2024-03-02T17:45:05;13.50;99.90